createdAt,value
2023-06-16T00:00:21.723Z,64.90
2023-06-16T00:02:49.888Z,64.90
2023-06-16T00:05:17.073Z,64.90
2023-06-16T00:07:44.076Z,64.90
2023-06-16T00:10:11.201Z,64.90
2023-06-16T00:12:38.644Z,64.90
2023-06-16T00:15:05.974Z,64.90
2023-06-16T00:17:32.999Z,64.90
2023-06-16T00:20:00.442Z,65.70
2023-06-16T00:22:28.119Z,65.00
2023-06-16T00:24:55.175Z,65.00
2023-06-16T00:27:25.158Z,65.00
2023-06-16T00:29:52.236Z,65.10
2023-06-16T00:32:19.383Z,65.10
2023-06-16T00:34:47.049Z,65.20
2023-06-16T00:37:14.092Z,65.30
2023-06-16T00:39:41.440Z,65.30
2023-06-16T00:42:09.372Z,65.30
2023-06-16T00:44:36.326Z,65.40
2023-06-16T00:47:03.668Z,65.40
2023-06-16T00:49:31.068Z,65.60
2023-06-16T00:51:58.665Z,65.70
2023-06-16T00:54:28.384Z,65.80
2023-06-16T00:56:55.544Z,65.80
2023-06-16T00:59:25.641Z,65.90
2023-06-16T01:01:53.896Z,66.00
2023-06-16T01:04:21.877Z,66.00
2023-06-16T01:06:56.885Z,66.10
2023-06-16T01:09:26.924Z,66.20
2023-06-16T01:12:13.079Z,66.20
2023-06-16T01:14:43.290Z,66.30
2023-06-16T01:17:10.881Z,66.40
2023-06-16T01:19:58.950Z,66.50
2023-06-16T01:22:29.187Z,66.50
2023-06-16T01:24:58.634Z,66.70
2023-06-16T01:27:26.219Z,66.80
2023-06-16T01:29:54.725Z,66.80
2023-06-16T01:32:22.408Z,66.80
2023-06-16T01:34:50.047Z,66.80
2023-06-16T01:37:17.340Z,66.90
2023-06-16T01:39:45.384Z,67.00
2023-06-16T01:42:13.129Z,67.10
2023-06-16T01:44:42.167Z,67.20
2023-06-16T01:47:09.553Z,67.20
2023-06-16T01:49:37.096Z,67.20
2023-06-16T01:52:04.794Z,67.30
2023-06-16T01:54:31.843Z,67.30
2023-06-16T01:56:59.160Z,67.40
2023-06-16T01:59:26.310Z,67.40
2023-06-16T02:01:57.659Z,67.50
2023-06-16T02:04:25.338Z,67.40
2023-06-16T02:06:56.834Z,67.30
2023-06-16T02:09:24.163Z,67.50
2023-06-16T02:11:53.418Z,67.70
2023-06-16T02:14:21.678Z,67.70
2023-06-16T02:16:51.822Z,67.80
2023-06-16T02:19:19.163Z,67.90
2023-06-16T02:21:46.326Z,68.00
2023-06-16T02:24:13.392Z,68.00
2023-06-16T02:26:40.401Z,68.10
2023-06-16T02:29:08.395Z,68.10
2023-06-16T02:31:35.692Z,68.20
2023-06-16T02:34:03.337Z,68.20
2023-06-16T02:36:31.082Z,68.20
2023-06-16T02:38:58.161Z,68.20
2023-06-16T02:41:25.561Z,68.30
2023-06-16T02:43:52.614Z,68.30
2023-06-16T02:46:19.790Z,68.30
2023-06-16T02:48:47.063Z,68.10
2023-06-16T02:51:14.772Z,68.20
2023-06-16T02:53:42.571Z,68.30
2023-06-16T02:56:11.448Z,68.30
2023-06-16T02:58:39.096Z,68.50
2023-06-16T03:01:33.986Z,68.60
2023-06-16T03:04:14.756Z,68.50
2023-06-16T03:07:07.558Z,68.60
2023-06-16T03:09:40.530Z,68.70
2023-06-16T03:12:09.886Z,68.90
2023-06-16T03:14:44.843Z,68.90
2023-06-16T03:17:15.831Z,68.90
2023-06-16T03:19:43.465Z,69.00
2023-06-16T03:22:12.007Z,69.10
2023-06-16T03:24:44.632Z,69.00
2023-06-16T03:27:12.607Z,68.90
2023-06-16T03:29:56.950Z,69.00
2023-06-16T03:32:24.741Z,69.10
2023-06-16T03:34:51.914Z,69.30
2023-06-16T03:37:19.280Z,69.40
2023-06-16T03:39:46.789Z,69.30
2023-06-16T03:42:14.401Z,70.20
2023-06-16T03:44:42.478Z,69.50
2023-06-16T03:47:10.571Z,69.60
2023-06-16T03:49:38.720Z,69.50
2023-06-16T03:52:06.183Z,69.70
2023-06-16T03:54:33.480Z,69.80
2023-06-16T03:57:00.672Z,69.80
2023-06-16T03:59:30.643Z,69.90
2023-06-16T04:01:59.320Z,69.90
2023-06-16T04:04:28.368Z,70.00
2023-06-16T04:06:58.525Z,69.90
2023-06-16T04:09:26.490Z,69.80
2023-06-16T04:11:53.847Z,69.70
2023-06-16T04:14:24.321Z,69.90
2023-06-16T04:16:52.380Z,70.10
2023-06-16T04:19:20.983Z,70.10
2023-06-16T04:21:48.115Z,70.00
2023-06-16T04:24:17.512Z,70.00
2023-06-16T04:26:46.343Z,70.00
2023-06-16T04:29:15.601Z,70.10
2023-06-16T04:31:46.894Z,70.70
2023-06-16T04:34:14.059Z,70.00
2023-06-16T04:36:42.931Z,70.10
2023-06-16T04:39:30.436Z,70.10
2023-06-16T04:41:59.007Z,70.20
2023-06-16T04:44:28.510Z,70.20
2023-06-16T04:46:57.825Z,70.20
2023-06-16T04:49:25.580Z,70.20
2023-06-16T04:51:52.898Z,70.10
2023-06-16T04:54:21.687Z,70.10
2023-06-16T04:56:48.743Z,70.20
2023-06-16T04:59:15.975Z,70.40
2023-06-16T05:01:43.083Z,70.30
2023-06-16T05:04:10.168Z,70.40
2023-06-16T05:06:40.155Z,70.40
2023-06-16T05:09:07.585Z,70.40
2023-06-16T05:11:34.620Z,70.60
2023-06-16T05:14:02.380Z,70.60
2023-06-16T05:16:30.424Z,70.60
2023-06-16T05:18:59.221Z,70.60
2023-06-16T05:21:27.456Z,70.50
2023-06-16T05:23:58.926Z,70.60
2023-06-16T05:26:26.957Z,70.70
2023-06-16T05:28:54.352Z,70.70
2023-06-16T05:31:24.081Z,70.80
2023-06-16T05:33:51.604Z,70.80
2023-06-16T05:36:18.691Z,70.90
2023-06-16T05:38:46.723Z,71.00
2023-06-16T05:41:13.828Z,71.10
2023-06-16T05:43:45.445Z,71.10
2023-06-16T05:46:12.669Z,71.00
2023-06-16T05:48:41.502Z,71.20
2023-06-16T05:51:10.726Z,71.30
2023-06-16T05:53:37.798Z,71.40
2023-06-16T05:56:05.035Z,71.30
2023-06-16T05:58:36.500Z,72.00
2023-06-16T06:01:05.543Z,71.50
2023-06-16T06:03:32.781Z,71.50
2023-06-16T06:06:00.203Z,71.60
2023-06-16T06:08:29.310Z,71.30
2023-06-16T06:10:57.561Z,71.60
2023-06-16T06:13:28.912Z,71.70
2023-06-16T06:15:56.181Z,71.60
2023-06-16T06:18:23.986Z,71.60
2023-06-16T06:20:54.423Z,71.80
2023-06-16T06:23:24.782Z,72.70
2023-06-16T06:25:51.718Z,72.50
2023-06-16T06:28:21.735Z,72.10
2023-06-16T06:30:48.866Z,72.10
2023-06-16T06:33:15.889Z,72.90
2023-06-16T06:35:42.939Z,73.40
2023-06-16T06:38:10.104Z,73.30
2023-06-16T06:40:37.900Z,73.40
2023-06-16T06:43:06.705Z,73.80
2023-06-16T06:45:57.305Z,73.00
2023-06-16T06:48:26.325Z,73.60
2023-06-16T06:50:58.008Z,73.90
2023-06-16T06:53:25.045Z,73.60
2023-06-16T06:55:51.973Z,73.50
2023-06-16T06:58:19.114Z,73.80
2023-06-16T07:00:46.172Z,73.30
2023-06-16T07:03:16.100Z,73.70
2023-06-16T07:05:43.733Z,73.20
2023-06-16T07:08:10.825Z,73.70
2023-06-16T07:10:38.087Z,73.50
2023-06-16T07:13:07.763Z,73.60
2023-06-16T07:15:35.037Z,73.40
2023-06-16T07:18:02.244Z,73.40
2023-06-16T07:20:29.260Z,73.60
2023-06-16T07:22:56.319Z,73.70
2023-06-16T07:25:23.297Z,74.10
2023-06-16T07:27:50.426Z,74.20
2023-06-16T07:30:17.830Z,74.00
2023-06-16T07:32:46.974Z,74.10
2023-06-16T07:35:14.062Z,74.00
2023-06-16T07:37:41.210Z,73.80
2023-06-16T07:40:09.887Z,73.90
2023-06-16T07:42:37.189Z,73.80
2023-06-16T07:45:04.346Z,73.70
2023-06-16T07:47:31.537Z,73.60
2023-06-16T07:49:58.506Z,73.80
2023-06-16T07:52:25.644Z,73.50
2023-06-16T07:54:52.738Z,73.70
2023-06-16T07:57:19.705Z,73.70
2023-06-16T07:59:46.804Z,73.90
2023-06-16T08:02:13.934Z,73.90
2023-06-16T08:04:49.082Z,73.80
2023-06-16T08:07:17.776Z,73.70
2023-06-16T08:09:45.496Z,73.70
2023-06-16T08:12:13.178Z,73.70
2023-06-16T08:14:45.214Z,73.70
2023-06-16T08:17:12.833Z,73.80
2023-06-16T08:19:39.811Z,73.70
2023-06-16T08:22:07.084Z,73.40
2023-06-16T08:24:34.236Z,73.60
2023-06-16T08:27:02.800Z,73.30
2023-06-16T08:29:31.448Z,73.30
2023-06-16T08:31:58.822Z,73.10
2023-06-16T08:34:25.866Z,73.10
2023-06-16T08:36:52.786Z,73.10
2023-06-16T08:39:20.183Z,73.10
2023-06-16T08:41:48.183Z,72.70
2023-06-16T08:44:16.920Z,72.20
2023-06-16T08:46:43.905Z,72.20
2023-06-16T08:49:15.691Z,72.50
2023-06-16T08:51:49.664Z,72.50
2023-06-16T08:54:18.976Z,72.50
2023-06-16T08:56:47.618Z,72.40
2023-06-16T08:59:16.761Z,72.30
2023-06-16T09:01:43.966Z,70.80
2023-06-16T09:04:11.083Z,69.00
2023-06-16T09:06:39.354Z,67.80
2023-06-16T09:09:07.151Z,68.40
2023-06-16T09:11:34.130Z,69.30
2023-06-16T09:14:09.387Z,68.30
2023-06-16T09:16:37.396Z,68.00
2023-06-16T09:19:08.033Z,68.40
2023-06-16T09:21:35.268Z,68.50
2023-06-16T09:24:06.131Z,67.30
2023-06-16T09:26:37.433Z,66.80
2023-06-16T09:29:21.052Z,66.80
2023-06-16T09:31:48.864Z,66.80
2023-06-16T09:34:16.050Z,66.90
2023-06-16T09:36:43.043Z,65.80
2023-06-16T09:39:24.279Z,67.00
2023-06-16T09:41:53.467Z,67.50
2023-06-16T09:44:27.274Z,68.90
2023-06-16T09:46:54.696Z,71.20
2023-06-16T09:49:22.388Z,68.00
2023-06-16T09:51:53.217Z,67.40
2023-06-16T09:54:21.634Z,66.80
2023-06-16T09:56:48.796Z,66.90
2023-06-16T09:59:16.572Z,65.30
2023-06-16T10:01:44.731Z,65.60
2023-06-16T10:04:11.796Z,67.00
2023-06-16T10:06:49.570Z,66.30
2023-06-16T10:09:23.304Z,64.70
2023-06-16T10:11:50.587Z,58.90
2023-06-16T10:14:18.801Z,59.40
2023-06-16T10:16:50.290Z,59.30
2023-06-16T10:19:18.219Z,59.10
2023-06-16T10:21:45.916Z,59.90
2023-06-16T10:24:13.009Z,56.20
2023-06-16T10:26:40.188Z,54.80
2023-06-16T10:29:07.768Z,56.40
2023-06-16T10:31:34.844Z,55.90
2023-06-16T10:34:01.895Z,53.90
2023-06-16T10:36:35.194Z,55.80
2023-06-16T10:39:08.093Z,55.60
2023-06-16T10:41:35.521Z,56.20
2023-06-16T10:44:21.228Z,55.40
2023-06-16T10:47:08.667Z,55.90
2023-06-16T10:49:47.155Z,55.80
2023-06-16T10:52:31.966Z,55.00
2023-06-16T10:55:00.067Z,53.70
2023-06-16T10:57:27.216Z,54.50
2023-06-16T11:00:14.546Z,53.80
2023-06-16T11:02:52.138Z,53.00
2023-06-16T11:05:23.685Z,53.70
2023-06-16T11:08:04.495Z,51.10
2023-06-16T11:10:31.639Z,52.20
2023-06-16T11:12:58.648Z,49.70
2023-06-16T11:15:25.635Z,50.40
2023-06-16T11:17:55.214Z,48.30
2023-06-16T11:20:22.864Z,47.50
2023-06-16T11:22:52.222Z,48.90
2023-06-16T11:25:19.289Z,49.40
2023-06-16T11:27:47.149Z,50.30
2023-06-16T11:30:14.559Z,50.20
2023-06-16T11:32:42.210Z,46.50
2023-06-16T11:35:09.912Z,49.30
2023-06-16T11:37:53.433Z,48.90
2023-06-16T11:40:22.586Z,47.00
2023-06-16T11:42:57.342Z,45.10
2023-06-16T11:45:24.841Z,47.50
2023-06-16T11:47:51.891Z,47.10
2023-06-16T11:50:19.916Z,44.10
2023-06-16T11:52:49.777Z,43.20
2023-06-16T11:55:16.960Z,47.60
2023-06-16T11:57:44.516Z,45.90
2023-06-16T12:00:13.143Z,47.30
2023-06-16T12:02:41.236Z,48.00
2023-06-16T12:05:17.931Z,48.80
2023-06-16T12:07:44.983Z,48.50
2023-06-16T12:10:12.047Z,49.00
2023-06-16T12:12:39.671Z,45.30
2023-06-16T12:15:08.896Z,47.50
2023-06-16T12:17:36.162Z,46.50
2023-06-16T12:20:05.805Z,46.20
2023-06-16T12:22:36.656Z,47.20
2023-06-16T12:25:03.899Z,46.70
2023-06-16T12:27:31.233Z,46.30
2023-06-16T12:30:01.553Z,47.10
2023-06-16T12:32:35.048Z,45.90
2023-06-16T12:35:02.459Z,46.70
2023-06-16T12:37:30.025Z,47.20
2023-06-16T12:39:58.152Z,45.90
2023-06-16T12:42:29.516Z,46.00
2023-06-16T12:45:03.805Z,46.10
2023-06-16T12:47:31.731Z,46.40
2023-06-16T12:49:59.862Z,46.20
2023-06-16T12:52:27.809Z,46.20
2023-06-16T12:54:55.559Z,43.30
2023-06-16T12:57:26.900Z,46.60
2023-06-16T12:59:54.407Z,45.40
2023-06-16T13:02:22.047Z,46.30
2023-06-16T13:04:49.401Z,45.70
2023-06-16T13:07:16.647Z,44.30
2023-06-16T13:09:43.775Z,44.90
2023-06-16T13:12:11.017Z,46.00
2023-06-16T13:14:38.415Z,45.50
2023-06-16T13:17:06.145Z,44.60
2023-06-16T13:19:33.445Z,44.50
2023-06-16T13:22:02.736Z,44.30
2023-06-16T13:24:31.083Z,42.40
2023-06-16T13:26:58.432Z,41.70
2023-06-16T13:29:28.141Z,43.30
2023-06-16T13:31:55.465Z,41.80
2023-06-16T13:34:22.581Z,42.40
2023-06-16T13:36:49.633Z,42.10
2023-06-16T13:39:16.894Z,41.70
2023-06-16T13:41:45.892Z,42.60
2023-06-16T13:44:15.416Z,43.00
2023-06-16T13:46:42.414Z,41.90
2023-06-16T13:49:12.428Z,42.60
2023-06-16T13:51:42.723Z,41.90
2023-06-16T13:54:11.770Z,42.60
2023-06-16T13:56:38.928Z,42.90
2023-06-16T13:59:06.080Z,41.90
2023-06-16T14:01:34.023Z,41.70
2023-06-16T14:04:01.138Z,43.50
2023-06-16T14:06:28.826Z,44.30
2023-06-16T14:08:57.395Z,43.40
2023-06-16T14:11:24.599Z,44.80
2023-06-16T14:13:52.771Z,45.30
2023-06-16T14:16:20.052Z,43.80
2023-06-16T14:18:47.187Z,45.50
2023-06-16T14:21:14.305Z,46.20
2023-06-16T14:23:41.291Z,44.60
2023-06-16T14:26:08.291Z,44.50
2023-06-16T14:28:35.402Z,45.20
2023-06-16T14:31:02.511Z,46.40
2023-06-16T14:33:29.555Z,45.80
2023-06-16T14:35:56.546Z,44.70
2023-06-16T14:38:23.541Z,44.30
2023-06-16T14:40:50.482Z,45.00
2023-06-16T14:43:17.743Z,46.00
2023-06-16T14:45:44.832Z,47.50
2023-06-16T14:48:11.986Z,45.40
2023-06-16T14:50:39.104Z,46.30
2023-06-16T14:53:06.244Z,47.20
2023-06-16T14:55:33.323Z,47.40
2023-06-16T14:58:00.609Z,47.40
2023-06-16T15:00:27.654Z,46.60
2023-06-16T15:02:54.813Z,46.00
2023-06-16T15:05:21.806Z,45.80
2023-06-16T15:07:48.698Z,46.90
2023-06-16T15:10:15.751Z,47.30
2023-06-16T15:12:42.849Z,47.80
2023-06-16T15:15:10.408Z,47.80
2023-06-16T15:17:37.754Z,48.40
2023-06-16T15:20:05.159Z,48.10
2023-06-16T15:22:32.199Z,46.60
2023-06-16T15:24:59.272Z,47.70
2023-06-16T15:27:26.192Z,47.90
2023-06-16T15:29:53.173Z,46.90
2023-06-16T15:32:20.199Z,47.70
2023-06-16T15:34:47.168Z,48.30
2023-06-16T15:37:14.180Z,48.00
2023-06-16T15:39:41.069Z,48.50
2023-06-16T15:42:08.177Z,48.90
2023-06-16T15:44:36.173Z,49.00
2023-06-16T15:47:03.465Z,48.90
2023-06-16T15:49:30.759Z,48.30
2023-06-16T15:51:59.350Z,48.30
2023-06-16T15:54:26.391Z,47.80
2023-06-16T15:56:55.188Z,48.70
2023-06-16T15:59:22.207Z,48.40
2023-06-16T16:01:50.417Z,49.00
2023-06-16T16:04:17.655Z,48.60
2023-06-16T16:06:46.658Z,48.80
2023-06-16T16:09:13.701Z,49.10
2023-06-16T16:11:41.296Z,48.80
2023-06-16T16:14:08.841Z,48.70
2023-06-16T16:16:35.994Z,48.30
2023-06-16T16:19:03.128Z,49.00
2023-06-16T16:21:30.342Z,49.00
2023-06-16T16:23:57.408Z,48.80
2023-06-16T16:26:24.510Z,49.30
2023-06-16T16:28:52.231Z,49.20
2023-06-16T16:31:19.721Z,49.20
2023-06-16T16:33:46.872Z,48.70
2023-06-16T16:36:27.163Z,49.70
2023-06-16T16:39:16.127Z,49.00
2023-06-16T16:41:43.870Z,49.50
2023-06-16T16:44:10.826Z,48.70
2023-06-16T16:46:37.902Z,48.90
2023-06-16T16:49:04.973Z,48.60
2023-06-16T16:51:31.953Z,48.80
2023-06-16T16:53:58.949Z,48.90
2023-06-16T16:56:25.907Z,49.80
2023-06-16T16:58:54.087Z,49.50
2023-06-16T17:01:21.332Z,49.30
2023-06-16T17:03:48.405Z,49.90
2023-06-16T17:06:15.566Z,50.30
2023-06-16T17:08:42.651Z,49.80
2023-06-16T17:11:09.653Z,50.10
2023-06-16T17:13:36.660Z,50.10
2023-06-16T17:16:03.978Z,50.60
2023-06-16T17:18:31.096Z,51.10
2023-06-16T17:20:58.142Z,50.30
2023-06-16T17:23:25.082Z,50.30
2023-06-16T17:25:52.200Z,50.70
2023-06-16T17:28:19.251Z,50.80
2023-06-16T17:30:47.201Z,51.30
2023-06-16T17:33:14.291Z,51.20
2023-06-16T17:35:42.388Z,51.00
2023-06-16T17:38:09.378Z,50.50
2023-06-16T17:40:36.384Z,51.00
2023-06-16T17:43:04.198Z,50.90
2023-06-16T17:45:33.524Z,51.00
2023-06-16T17:48:01.314Z,50.80
2023-06-16T17:50:29.455Z,51.00
2023-06-16T17:52:59.277Z,51.50
2023-06-16T17:55:26.278Z,51.50
2023-06-16T17:57:53.269Z,51.30
2023-06-16T18:00:20.745Z,51.00
2023-06-16T18:02:48.044Z,51.20
2023-06-16T18:05:15.221Z,51.10
2023-06-16T18:07:42.362Z,51.60
2023-06-16T18:10:09.827Z,51.10
2023-06-16T18:12:37.396Z,51.60
2023-06-16T18:15:04.676Z,51.60
2023-06-16T18:17:32.189Z,51.70
2023-06-16T18:19:59.197Z,52.00
2023-06-16T18:22:26.192Z,52.10
2023-06-16T18:24:53.210Z,52.40
2023-06-16T18:27:20.184Z,52.10
2023-06-16T18:29:48.214Z,52.10
2023-06-16T18:32:15.290Z,52.40
2023-06-16T18:34:42.916Z,52.80
2023-06-16T18:37:10.069Z,52.60
2023-06-16T18:39:37.520Z,52.60
2023-06-16T18:42:04.667Z,52.50
2023-06-16T18:44:31.953Z,52.80
2023-06-16T18:47:00.420Z,52.90
2023-06-16T18:49:27.495Z,52.90
2023-06-16T18:51:55.266Z,53.00
2023-06-16T18:54:23.107Z,53.30
2023-06-16T18:56:50.058Z,53.40
2023-06-16T18:59:17.113Z,53.20
2023-06-16T19:01:45.740Z,52.80
2023-06-16T19:04:12.929Z,52.90
2023-06-16T19:06:40.518Z,53.10
2023-06-16T19:09:11.103Z,53.20
2023-06-16T19:11:38.251Z,53.20
2023-06-16T19:14:05.454Z,53.20
2023-06-16T19:16:35.822Z,53.10
2023-06-16T19:19:03.244Z,53.10
2023-06-16T19:21:30.314Z,53.50
2023-06-16T19:23:57.555Z,53.20
2023-06-16T19:26:24.646Z,53.30
2023-06-16T19:28:53.163Z,53.20
2023-06-16T19:31:21.261Z,53.10
2023-06-16T19:33:48.773Z,53.10
2023-06-16T19:36:17.916Z,53.50
2023-06-16T19:38:45.116Z,53.30
2023-06-16T19:41:12.641Z,53.20
2023-06-16T19:43:39.651Z,53.40
2023-06-16T19:46:08.600Z,53.30
2023-06-16T19:48:35.576Z,53.30
2023-06-16T19:51:02.818Z,53.50
2023-06-16T19:53:29.801Z,53.20
2023-06-16T19:55:58.109Z,53.40
2023-06-16T19:58:26.534Z,53.60
2023-06-16T20:00:53.722Z,53.70
2023-06-16T20:03:21.049Z,53.80
2023-06-16T20:05:48.931Z,53.80
2023-06-16T20:08:17.679Z,53.70
2023-06-16T20:10:45.170Z,53.90
2023-06-16T20:13:12.122Z,53.90
2023-06-16T20:15:39.157Z,54.10
2023-06-16T20:18:06.225Z,54.00
2023-06-16T20:20:33.552Z,53.90
2023-06-16T20:23:01.768Z,54.00
2023-06-16T20:25:28.950Z,54.30
2023-06-16T20:27:55.963Z,54.00
2023-06-16T20:30:23.200Z,54.10
2023-06-16T20:32:50.882Z,54.00
2023-06-16T20:35:18.866Z,54.20
2023-06-16T20:37:50.794Z,54.10
2023-06-16T20:40:18.294Z,54.30
2023-06-16T20:42:49.254Z,54.10
2023-06-16T20:45:21.870Z,54.20
2023-06-16T20:47:53.182Z,54.30
2023-06-16T20:50:24.106Z,54.20
2023-06-16T20:52:51.783Z,54.40
2023-06-16T20:55:19.378Z,54.30
2023-06-16T20:57:47.690Z,54.30
2023-06-16T21:00:16.599Z,54.20
2023-06-16T21:02:43.791Z,54.30
2023-06-16T21:05:12.319Z,54.20
2023-06-16T21:07:49.272Z,54.30
2023-06-16T21:10:18.371Z,54.30
2023-06-16T21:12:46.191Z,54.30
2023-06-16T21:15:14.166Z,54.30
2023-06-16T21:17:41.458Z,54.40
2023-06-16T21:20:10.239Z,54.30
2023-06-16T21:22:37.911Z,54.50
2023-06-16T21:25:05.616Z,54.50
2023-06-16T21:27:34.764Z,54.40
2023-06-16T21:30:01.876Z,54.60
2023-06-16T21:32:30.307Z,54.60
2023-06-16T21:34:57.899Z,54.60
2023-06-16T21:37:26.232Z,54.50
2023-06-16T21:40:16.975Z,54.50
2023-06-16T21:42:44.758Z,54.50
2023-06-16T21:45:15.950Z,54.80
2023-06-16T21:47:43.162Z,54.60
2023-06-16T21:50:10.611Z,54.90
2023-06-16T21:52:38.314Z,54.80
2023-06-16T21:55:06.070Z,54.50
2023-06-16T21:57:34.140Z,54.60
2023-06-16T22:00:01.288Z,54.70
2023-06-16T22:02:31.942Z,54.80
2023-06-16T22:04:59.046Z,54.70
2023-06-16T22:07:27.139Z,54.80
2023-06-16T22:09:54.672Z,54.90
2023-06-16T22:12:24.239Z,55.10
2023-06-16T22:14:51.545Z,55.10
2023-06-16T22:17:18.639Z,55.00
2023-06-16T22:19:46.300Z,55.00
2023-06-16T22:22:13.395Z,55.00
2023-06-16T22:24:42.651Z,55.00
2023-06-16T22:29:41.055Z,55.00
2023-06-16T22:32:08.478Z,55.10
2023-06-16T22:34:36.127Z,55.10
2023-06-16T22:37:03.520Z,55.20
2023-06-16T22:39:30.498Z,55.30
2023-06-16T22:41:57.696Z,55.30
2023-06-16T22:44:24.870Z,55.50
2023-06-16T22:46:53.199Z,55.30
2023-06-16T22:49:25.006Z,55.30
2023-06-16T22:51:52.852Z,55.30
2023-06-16T22:54:20.579Z,55.40
2023-06-16T22:56:47.802Z,55.40
2023-06-16T22:59:14.983Z,55.50
2023-06-16T23:01:42.140Z,55.40
2023-06-16T23:04:09.365Z,55.50
2023-06-16T23:06:36.874Z,55.50
2023-06-16T23:09:05.112Z,55.60
2023-06-16T23:11:32.718Z,55.60
2023-06-16T23:13:59.810Z,55.50
2023-06-16T23:16:28.081Z,55.60
2023-06-16T23:18:55.260Z,55.70
2023-06-16T23:21:22.896Z,56.30
2023-06-16T23:23:54.999Z,56.20
2023-06-16T23:26:23.895Z,55.90
2023-06-16T23:28:51.313Z,55.70
2023-06-16T23:31:20.231Z,55.70
2023-06-16T23:33:50.885Z,55.70
2023-06-16T23:36:19.299Z,55.80
2023-06-16T23:38:46.631Z,55.80
2023-06-16T23:41:14.237Z,55.80
2023-06-16T23:43:41.380Z,56.00
2023-06-16T23:46:08.673Z,56.20
2023-06-16T23:48:35.775Z,56.80
2023-06-16T23:51:02.832Z,56.30
2023-06-16T23:53:31.082Z,56.50
2023-06-16T23:55:58.342Z,56.40
2023-06-16T23:58:28.707Z,56.40
